Time;durP1;ratioP1;P1;durP2;ratioP2;P2;SDS_P1;SDS_P2;PMS_P1;PMS_P2;Temp;Humidity;BMP_temperature;BMP_pressure;BME280_temperature;BME280_humidity;BME280_pressure;Samples;Min_cycle;Max_cycle;Signal;HPM_P1;HPM_P2
2023/02/06 00:01:18;;;;;;;32.97;16.52;;;;;;;-0.02;100.00;99283.41;5058518;28;20043;-63
2023/02/06 00:03:45;;;;;;;33.95;14.75;;;;;;;-0.01;100.00;99280.63;5062038;28;20099;-63
2023/02/06 00:06:11;;;;;;;32.70;16.80;;;;;;;-0.02;100.00;99286.94;5060941;28;20578;-63
2023/02/06 00:08:38;;;;;;;35.63;17.38;;;;;;;-0.02;100.00;99283.41;5062198;28;20483;-63
2023/02/06 00:11:07;;;;;;;31.88;16.45;;;;;;;0.08;100.00;99276.28;5061449;28;20091;-63
2023/02/06 00:13:34;;;;;;;34.53;17.45;;;;;;;0.05;100.00;99281.91;5060687;28;20052;-63
2023/02/06 00:16:01;;;;;;;36.03;17.38;;;;;;;0.02;100.00;99282.16;5059765;28;20766;-63
2023/02/06 00:18:28;;;;;;;37.97;17.70;;;;;;;0.01;100.00;99282.31;5060098;28;20036;-63
2023/02/06 00:20:54;;;;;;;36.85;17.08;;;;;;;0.03;100.00;99280.34;5060286;28;20056;-63
2023/02/06 00:23:21;;;;;;;33.35;16.73;;;;;;;0.07;100.00;99279.94;5058646;28;20487;-63
2023/02/06 00:25:47;;;;;;;38.17;16.70;;;;;;;0.09;100.00;99278.00;5052085;28;20126;-63
2023/02/06 00:28:14;;;;;;;39.20;16.35;;;;;;;0.14;100.00;99276.75;5061404;28;20047;-63
2023/02/06 00:30:40;;;;;;;38.00;18.05;;;;;;;0.04;100.00;99279.38;5058544;28;20109;-63
2023/02/06 00:33:07;;;;;;;34.90;16.83;;;;;;;-0.09;100.00;99280.47;5059336;28;20041;-63
2023/02/06 00:35:33;;;;;;;44.75;18.98;;;;;;;-0.05;100.00;99287.19;5060562;28;20048;-63
2023/02/06 00:38:01;;;;;;;41.10;17.08;;;;;;;-0.10;100.00;99288.59;5056804;28;20393;-63
2023/02/06 00:40:28;;;;;;;42.20;18.40;;;;;;;-0.11;100.00;99292.22;5058035;28;20749;-63
2023/02/06 00:42:54;;;;;;;45.85;20.40;;;;;;;-0.10;100.00;99294.75;5056300;28;20097;-63
2023/02/06 00:45:21;;;;;;;43.45;19.05;;;;;;;-0.04;100.00;99294.22;5060787;28;20036;-63
2023/02/06 00:47:47;;;;;;;48.20;20.10;;;;;;;0.03;100.00;99291.84;5058639;28;20405;-63
2023/02/06 00:50:14;;;;;;;43.72;18.23;;;;;;;0.12;100.00;99295.53;5062447;28;20503;-63
2023/02/06 00:52:41;;;;;;;46.50;20.27;;;;;;;0.07;100.00;99303.09;5064235;28;21349;-63
2023/02/06 00:55:09;;;;;;;46.05;20.65;;;;;;;0.00;100.00;99289.47;5060454;28;20171;-63
2023/02/06 00:57:35;;;;;;;48.88;21.27;;;;;;;0.02;100.00;99292.81;5056080;28;20071;-63
2023/02/06 01:00:05;;;;;;;37.63;17.92;;;;;;;0.08;100.00;99289.59;5059429;28;20033;-63
2023/02/06 01:02:32;;;;;;;46.38;20.38;;;;;;;0.12;100.00;99288.34;5056971;28;20045;-63
2023/02/06 01:04:58;;;;;;;39.17;19.77;;;;;;;0.23;100.00;99286.56;5059580;28;20210;-63
2023/02/06 01:07:25;;;;;;;41.60;17.90;;;;;;;0.26;100.00;99286.31;5058593;28;20098;-63
2023/02/06 01:09:51;;;;;;;40.63;18.30;;;;;;;0.24;100.00;99289.09;5063151;28;20418;-63
2023/02/06 01:12:18;;;;;;;43.03;19.17;;;;;;;0.15;100.00;99294.41;5057959;28;20070;-63
2023/02/06 01:14:46;;;;;;;43.78;19.58;;;;;;;0.01;100.00;99300.94;5068119;28;20040;-62
2023/02/06 01:17:13;;;;;;;47.17;19.10;;;;;;;0.07;100.00;99308.41;5057863;28;20488;-63
2023/02/06 01:19:39;;;;;;;46.10;19.92;;;;;;;-0.03;100.00;99303.88;5062633;28;20530;-63
2023/02/06 01:22:06;;;;;;;44.35;19.48;;;;;;;-0.05;100.00;99299.66;5061181;28;20123;-63
2023/02/06 01:24:32;;;;;;;47.03;21.15;;;;;;;0.01;100.00;99296.47;5064119;28;20123;-63
2023/02/06 01:26:59;;;;;;;47.92;19.88;;;;;;;0.05;100.00;99300.56;5061831;28;20463;-63
2023/02/06 01:29:25;;;;;;;51.50;21.40;;;;;;;0.07;100.00;99298.56;5059312;28;20568;-63
2023/02/06 01:31:52;;;;;;;49.15;20.27;;;;;;;0.09;100.00;99303.78;5066044;28;20091;-63
2023/02/06 01:34:18;;;;;;;48.13;20.65;;;;;;;0.09;100.00;99296.63;5061716;28;20711;-63
2023/02/06 01:36:45;;;;;;;47.90;21.25;;;;;;;0.19;100.00;99309.13;5059385;28;20052;-63
2023/02/06 01:39:11;;;;;;;44.65;20.58;;;;;;;0.23;100.00;99298.03;5057331;28;20033;-63
2023/02/06 01:41:38;;;;;;;46.22;20.02;;;;;;;0.27;100.00;99295.13;5058533;28;20045;-63
2023/02/06 01:44:12;;;;;;;43.95;20.52;;;;;;;0.27;100.00;99295.97;5061620;28;20050;-63
2023/02/06 01:46:40;;;;;;;51.15;20.33;;;;;;;0.15;100.00;99295.25;5057844;28;20047;-63
2023/02/06 01:49:11;;;;;;;41.15;20.25;;;;;;;0.18;100.00;99294.13;5059511;28;20040;-63
2023/02/06 01:51:39;;;;;;;49.37;20.03;;;;;;;0.11;100.00;99293.84;5057464;28;20458;-63
2023/02/06 01:54:07;;;;;;;49.30;21.20;;;;;;;-0.05;100.00;99287.19;5058811;28;20055;-63
2023/02/06 01:56:40;;;;;;;43.03;20.88;;;;;;;-0.11;100.00;99286.91;5056241;28;20044;-63
2023/02/06 01:59:07;;;;;;;43.38;20.17;;;;;;;-0.04;100.00;99288.88;5056171;28;20056;-62
2023/02/06 02:01:33;;;;;;;44.75;20.23;;;;;;;-0.08;100.00;99286.63;5055009;28;20068;-63
2023/02/06 02:04:05;;;;;;;51.42;21.38;;;;;;;-0.08;100.00;99287.47;5057460;28;20049;-63
2023/02/06 02:06:33;;;;;;;46.95;19.60;;;;;;;-0.13;100.00;99287.03;5058914;28;20608;-63
2023/02/06 02:09:01;;;;;;;42.33;20.27;;;;;;;-0.16;100.00;99296.13;5059607;28;20072;-63
2023/02/06 02:11:32;;;;;;;51.53;21.33;;;;;;;-0.13;100.00;99289.69;5056105;28;20044;-63
2023/02/06 02:14:00;;;;;;;52.65;21.48;;;;;;;-0.16;100.00;99293.47;5064081;28;20048;-63
2023/02/06 02:16:44;;;;;;;51.13;21.85;;;;;;;-0.17;100.00;99294.47;5056720;28;20040;-63
2023/02/06 02:19:36;;;;;;;50.75;22.17;;;;;;;-0.06;100.00;99285.53;5059733;28;20051;-63
2023/02/06 02:22:48;;;;;;;54.13;22.90;;;;;;;-0.03;100.00;99284.41;5056495;28;20492;-63
2023/02/06 02:25:53;;;;;;;46.50;19.55;;;;;;;-0.05;100.00;99281.88;5061821;28;20040;-63
2023/02/06 02:28:47;;;;;;;47.83;19.25;;;;;;;-0.04;100.00;99286.22;5056091;28;20033;-63
2023/02/06 02:31:28;;;;;;;53.97;20.73;;;;;;;-0.04;100.00;99288.88;5057841;28;20124;-63
2023/02/06 02:34:20;;;;;;;46.13;20.70;;;;;;;-0.03;100.00;99287.06;5060614;28;20107;-63
2023/02/06 02:37:10;;;;;;;52.22;19.92;;;;;;;-0.07;100.00;99285.66;5057948;28;20098;-63
2023/02/06 02:39:46;;;;;;;43.40;19.67;;;;;;;-0.18;100.00;99286.59;5059215;28;20054;-63
2023/02/06 02:42:21;;;;;;;49.10;21.70;;;;;;;-0.10;100.00;99288.59;5053380;28;20052;-63
2023/02/06 02:45:18;;;;;;;53.75;20.33;;;;;;;-0.21;100.00;99282.41;5057703;28;20036;-63
2023/02/06 02:48:03;;;;;;;55.15;20.98;;;;;;;-0.12;100.00;99282.56;5054231;28;20110;-63
2023/02/06 02:50:32;;;;;;;50.65;21.35;;;;;;;-0.11;100.00;99278.91;5057026;28;20040;-63
2023/02/06 02:53:00;;;;;;;53.33;21.75;;;;;;;-0.16;100.00;99279.31;5051718;28;20045;-63
2023/02/06 02:55:27;;;;;;;55.97;22.27;;;;;;;-0.14;100.00;99283.53;5063532;28;20044;-63
2023/02/06 02:58:04;;;;;;;55.53;21.73;;;;;;;-0.04;100.00;99290.72;5053968;28;20044;-63
2023/02/06 03:00:34;;;;;;;53.65;23.52;;;;;;;-0.04;100.00;99278.22;5058817;28;20044;-63
2023/02/06 03:03:03;;;;;;;58.60;26.38;;;;;;;-0.17;100.00;99281.16;5054262;28;20060;-63
2023/02/06 03:05:31;;;;;;;56.47;22.67;;;;;;;-0.11;100.00;99282.41;5054440;28;20044;-63
2023/02/06 03:08:26;;;;;;;55.80;21.85;;;;;;;-0.10;100.00;99275.25;5053489;28;20049;-63
2023/02/06 03:11:13;;;;;;;47.10;21.40;;;;;;;-0.09;100.00;99268.97;5058875;28;20113;-63
2023/02/06 03:13:49;;;;;;;49.40;19.77;;;;;;;-0.19;100.00;99264.44;5057570;28;20052;-63
2023/02/06 03:16:27;;;;;;;55.33;22.13;;;;;;;-0.16;100.00;99264.19;5060124;28;20044;-63
2023/02/06 03:19:12;;;;;;;50.50;21.65;;;;;;;-0.14;100.00;99266.72;5063917;28;20486;-63
2023/02/06 03:21:41;;;;;;;55.80;21.67;;;;;;;-0.17;100.00;99267.84;5054592;28;20501;-63
2023/02/06 03:24:25;;;;;;;55.42;21.58;;;;;;;-0.14;100.00;99262.22;5058505;28;20036;-63
2023/02/06 03:26:58;;;;;;;58.58;23.48;;;;;;;-0.15;100.00;99273.84;5052404;28;20040;-63
2023/02/06 03:29:28;;;;;;;55.08;22.55;;;;;;;-0.11;100.00;99276.25;5060606;28;20079;-63
2023/02/06 03:31:59;;;;;;;55.80;22.65;;;;;;;-0.04;100.00;99277.41;5057534;28;20056;-63
2023/02/06 03:34:41;;;;;;;60.00;23.63;;;;;;;-0.07;100.00;99272.34;5057900;28;20569;-63
2023/02/06 03:37:08;;;;;;;56.55;22.50;;;;;;;-0.05;100.00;99270.38;5057697;28;20040;-63
2023/02/06 03:39:34;;;;;;;44.80;20.77;;;;;;;-0.07;100.00;99278.50;5056572;28;20044;-63
2023/02/06 03:42:03;;;;;;;61.38;22.95;;;;;;;-0.09;100.00;99276.94;5054944;28;20048;-63
2023/02/06 03:44:34;;;;;;;55.97;23.60;;;;;;;-0.13;100.00;99284.38;5058420;28;20068;-63
2023/02/06 03:47:03;;;;;;;52.03;23.35;;;;;;;-0.04;100.00;99285.41;5060038;28;20758;-63
2023/02/06 03:49:31;;;;;;;56.85;22.75;;;;;;;-0.08;100.00;99278.66;5066958;28;20115;-63
2023/02/06 03:52:09;;;;;;;50.42;22.15;;;;;;;-0.18;100.00;99274.13;5059790;28;20546;-63
2023/02/06 03:54:40;;;;;;;47.92;22.90;;;;;;;-0.10;100.00;99281.44;5060685;28;20071;-63
2023/02/06 03:57:11;;;;;;;51.38;22.85;;;;;;;-0.07;100.00;99277.66;5061432;28;20646;-63
2023/02/06 03:59:38;;;;;;;45.67;21.50;;;;;;;0.01;100.00;99274.31;5063271;28;20052;-63
2023/02/06 04:02:05;;;;;;;57.60;22.42;;;;;;;-0.02;100.00;99275.44;5064979;28;20369;-62
2023/02/06 04:04:37;;;;;;;43.22;21.63;;;;;;;-0.05;100.00;99275.69;5060687;28;21222;-63
2023/02/06 04:07:11;;;;;;;52.85;24.27;;;;;;;-0.17;100.00;99269.66;5059916;28;20075;-63
2023/02/06 04:09:38;;;;;;;44.83;21.17;;;;;;;-0.14;100.00;99280.84;5063205;28;20036;-63
2023/02/06 04:12:05;;;;;;;46.95;21.40;;;;;;;-0.12;100.00;99272.75;5061037;28;20044;-63
2023/02/06 04:14:32;;;;;;;47.45;23.10;;;;;;;-0.16;100.00;99271.31;5061134;28;20079;-63
2023/02/06 04:16:58;;;;;;;59.00;24.70;;;;;;;-0.07;100.00;99278.50;5053433;28;20869;-63
2023/02/06 04:19:25;;;;;;;62.17;25.83;;;;;;;-0.11;100.00;99279.75;5061907;28;20064;-63
2023/02/06 04:21:51;;;;;;;48.83;23.67;;;;;;;-0.16;100.00;99277.50;5064474;28;20043;-63
2023/02/06 04:24:18;;;;;;;54.08;23.80;;;;;;;-0.12;100.00;99270.06;5059561;28;20043;-62
2023/02/06 04:26:44;;;;;;;53.20;23.98;;;;;;;-0.20;100.00;99262.78;5062653;28;20076;-63
2023/02/06 04:29:11;;;;;;;53.92;24.02;;;;;;;-0.19;100.00;99269.78;5056979;28;20118;-63
2023/02/06 04:31:39;;;;;;;50.05;24.65;;;;;;;-0.16;100.00;99269.50;5062492;28;20737;-62
2023/02/06 04:34:06;;;;;;;45.38;22.08;;;;;;;-0.11;100.00;99278.91;5059099;28;20080;-62
2023/02/06 04:36:32;;;;;;;46.28;23.27;;;;;;;-0.11;100.00;99277.06;5061749;28;20098;-63
2023/02/06 04:38:59;;;;;;;45.55;22.50;;;;;;;-0.10;100.00;99267.28;5059439;28;20090;-62
2023/02/06 04:41:26;;;;;;;49.33;21.35;;;;;;;-0.08;100.00;99265.34;5059058;28;20506;-63
2023/02/06 04:43:52;;;;;;;41.88;21.83;;;;;;;-0.12;100.00;99270.06;5058589;28;20493;-62
2023/02/06 04:46:18;;;;;;;43.38;22.50;;;;;;;-0.05;100.00;99275.69;5065378;28;20036;-63
2023/02/06 04:48:45;;;;;;;47.58;21.25;;;;;;;0.02;100.00;99268.84;5060508;28;20461;-63
2023/02/06 04:51:12;;;;;;;43.03;21.52;;;;;;;0.06;100.00;99264.94;5067470;28;20086;-63
2023/02/06 04:53:39;;;;;;;38.97;21.17;;;;;;;-0.03;100.00;99268.44;5058824;28;20045;-61
2023/02/06 04:56:09;;;;;;;46.47;22.75;;;;;;;-0.13;100.00;99268.41;5060692;28;20040;-62
2023/02/06 04:58:36;;;;;;;43.42;21.90;;;;;;;-0.05;100.00;99273.88;5060526;28;20052;-63
2023/02/06 05:01:03;;;;;;;40.22;22.10;;;;;;;-0.11;100.00;99277.06;5061765;28;20415;-62
2023/02/06 05:03:29;;;;;;;40.72;22.30;;;;;;;-0.11;100.00;99273.59;5062483;28;20070;-62
2023/02/06 05:05:58;;;;;;;41.25;21.55;;;;;;;-0.12;100.00;99277.25;5063176;28;20427;-63
2023/02/06 05:08:25;;;;;;;47.70;21.60;;;;;;;-0.22;100.00;99280.69;5061156;28;20039;-62
2023/02/06 05:10:52;;;;;;;41.25;21.90;;;;;;;-0.24;100.00;99277.34;5069194;28;20550;-62
2023/02/06 05:13:18;;;;;;;42.75;22.00;;;;;;;-0.23;100.00;99267.53;5070496;28;20495;-62
2023/02/06 05:15:45;;;;;;;40.47;21.30;;;;;;;-0.19;100.00;99261.78;5072733;28;20044;-62
2023/02/06 05:18:12;;;;;;;41.20;20.98;;;;;;;-0.23;100.00;99260.38;5063928;28;20048;-62
2023/02/06 05:20:38;;;;;;;51.17;23.90;;;;;;;-0.28;100.00;99268.78;5073683;28;20064;-62
2023/02/06 05:23:05;;;;;;;48.42;22.58;;;;;;;-0.27;100.00;99266.94;5066158;28;20044;-62
2023/02/06 05:25:34;;;;;;;43.80;22.70;;;;;;;-0.22;100.00;99270.03;5066531;28;20061;-62
2023/02/06 05:28:05;;;;;;;48.50;25.05;;;;;;;-0.27;100.00;99266.94;5071734;28;20554;-62
2023/02/06 05:30:33;;;;;;;45.83;23.83;;;;;;;-0.33;100.00;99278.97;5065402;28;20748;-63
2023/02/06 05:32:59;;;;;;;51.70;27.77;;;;;;;-0.36;100.00;99281.06;5070204;28;20648;-62
2023/02/06 05:35:27;;;;;;;45.40;22.95;;;;;;;-0.23;100.00;99286.19;5070266;28;20044;-62
2023/02/06 05:37:53;;;;;;;41.28;23.38;;;;;;;-0.17;100.00;99278.50;5072605;28;20055;-63
2023/02/06 05:40:20;;;;;;;41.92;22.45;;;;;;;-0.19;100.00;99280.44;5079107;28;20032;-63
2023/02/06 05:42:46;;;;;;;37.20;19.23;;;;;;;-0.33;100.00;99278.97;5070091;28;20305;-63
2023/02/06 05:45:13;;;;;;;45.90;23.77;;;;;;;-0.32;100.00;99279.81;5067792;28;20044;-62
2023/02/06 05:47:39;;;;;;;43.17;22.65;;;;;;;-0.29;100.00;99275.06;5074113;28;20598;-63
2023/02/06 05:50:06;;;;;;;43.53;21.75;;;;;;;-0.23;100.00;99276.34;5068291;28;20427;-63
2023/02/06 05:52:32;;;;;;;40.97;21.08;;;;;;;-0.28;100.00;99274.09;5067970;28;20055;-62
2023/02/06 05:54:59;;;;;;;34.80;22.08;;;;;;;-0.31;100.00;99285.03;5071615;28;20142;-63
2023/02/06 05:57:25;;;;;;;38.25;22.42;;;;;;;-0.30;100.00;99276.03;5061772;28;20514;-63
2023/02/06 05:59:52;;;;;;;42.22;23.85;;;;;;;-0.34;100.00;99284.44;5060749;28;20549;-63
2023/02/06 06:02:18;;;;;;;44.78;23.05;;;;;;;-0.31;100.00;99294.81;5065144;28;20040;-62
2023/02/06 06:04:45;;;;;;;39.30;20.92;;;;;;;-0.34;100.00;99295.09;5063063;28;20040;-63
2023/02/06 06:07:11;;;;;;;40.50;21.60;;;;;;;-0.31;100.00;99293.00;5067842;28;20076;-62
2023/02/06 06:09:38;;;;;;;39.03;21.38;;;;;;;-0.45;100.00;99286.22;5061653;28;20036;-63
2023/02/06 06:12:04;;;;;;;39.85;21.90;;;;;;;-0.39;100.00;99292.81;5066971;28;20040;-63
2023/02/06 06:14:31;;;;;;;40.00;21.38;;;;;;;-0.37;100.00;99293.53;5067928;28;20036;-63
2023/02/06 06:16:57;;;;;;;37.35;21.60;;;;;;;-0.33;100.00;99292.28;5064190;28;20127;-63
2023/02/06 06:19:24;;;;;;;40.58;22.40;;;;;;;-0.37;100.00;99282.06;5071038;28;20119;-59
2023/02/06 06:21:50;;;;;;;40.10;22.15;;;;;;;-0.35;100.00;99275.63;5064187;28;20056;-58
2023/02/06 06:24:17;;;;;;;39.42;20.70;;;;;;;-0.22;100.00;99288.69;5064110;28;20101;-59
2023/02/06 06:26:43;;;;;;;42.42;22.13;;;;;;;-0.30;100.00;99283.19;5058688;28;21426;-59
2023/02/06 06:29:10;;;;;;;36.83;20.35;;;;;;;-0.46;100.00;99275.69;5067736;28;20048;-59
2023/02/06 06:31:37;;;;;;;41.40;22.77;;;;;;;-0.56;100.00;99283.63;5060949;28;20064;-59
2023/02/06 06:34:03;;;;;;;43.33;22.25;;;;;;;-0.43;100.00;99281.63;5065757;28;20051;-58
2023/02/06 06:36:29;;;;;;;39.35;21.85;;;;;;;-0.54;100.00;99290.53;5060836;28;20140;-60
2023/02/06 06:38:56;;;;;;;41.22;21.98;;;;;;;-0.44;100.00;99316.34;5063121;28;20091;-57
2023/02/06 06:41:22;;;;;;;40.85;21.40;;;;;;;-0.33;100.00;99318.91;5059815;28;20033;-59
2023/02/06 06:43:49;;;;;;;42.50;23.08;;;;;;;-0.38;100.00;99312.31;5061946;28;20063;-59
2023/02/06 06:46:17;;;;;;;42.90;22.70;;;;;;;-0.34;100.00;99301.25;5060971;28;20127;-59
2023/02/06 06:48:44;;;;;;;38.97;21.40;;;;;;;-0.35;100.00;99296.91;5059949;28;20044;-60
2023/02/06 06:51:10;;;;;;;36.88;20.73;;;;;;;-0.19;100.00;99314.22;5060194;28;20139;-59
2023/02/06 06:53:38;;;;;;;40.08;21.55;;;;;;;-0.27;100.00;99299.75;5059233;28;20119;-60
2023/02/06 06:56:07;;;;;;;41.53;21.92;;;;;;;-0.28;100.00;99298.06;5057781;28;20067;-60
2023/02/06 06:58:33;;;;;;;40.95;21.20;;;;;;;-0.29;100.00;99301.69;5056137;28;20048;-59
2023/02/06 07:01:00;;;;;;;36.95;21.10;;;;;;;-0.22;100.00;99294.00;5056769;28;20032;-60
2023/02/06 07:03:26;;;;;;;39.58;21.08;;;;;;;-0.29;100.00;99284.88;5056196;28;20098;-61
2023/02/06 07:05:53;;;;;;;39.65;22.30;;;;;;;-0.34;100.00;99274.63;5057042;28;20052;-58
2023/02/06 07:08:19;;;;;;;45.53;23.20;;;;;;;-0.44;100.00;99276.41;5057169;28;20050;-59
2023/02/06 07:10:47;;;;;;;40.08;22.08;;;;;;;-0.42;100.00;99280.63;5059263;28;20557;-60
2023/02/06 07:13:14;;;;;;;46.33;23.75;;;;;;;-0.45;100.00;99280.88;5058902;28;20051;-60
2023/02/06 07:15:41;;;;;;;44.40;22.13;;;;;;;-0.47;100.00;99295.31;5059764;28;20047;-58
2023/02/06 07:18:08;;;;;;;40.75;21.38;;;;;;;-0.46;100.00;99291.66;5064080;28;20499;-60
2023/02/06 07:20:37;;;;;;;49.70;23.45;;;;;;;-0.43;100.00;99289.59;5062142;28;20029;-60
2023/02/06 07:23:04;;;;;;;38.55;20.63;;;;;;;-0.45;100.00;99291.53;5060747;28;20896;-60
2023/02/06 07:25:31;;;;;;;42.20;22.25;;;;;;;-0.44;100.00;99295.88;5060382;28;20228;-58
2023/02/06 07:27:58;;;;;;;39.70;21.83;;;;;;;-0.46;100.00;99300.50;5066575;28;20352;-58
2023/02/06 07:30:24;;;;;;;43.80;22.17;;;;;;;-0.51;100.00;99305.38;5069449;28;20047;-61
2023/02/06 07:32:51;;;;;;;40.80;21.40;;;;;;;-0.44;100.00;99311.84;5061293;28;20039;-58
2023/02/06 07:35:17;;;;;;;43.45;22.08;;;;;;;-0.40;100.00;99315.94;5060884;28;20047;-59
2023/02/06 07:37:44;;;;;;;42.70;22.17;;;;;;;-0.43;100.00;99321.53;5063790;28;20049;-60
2023/02/06 07:40:11;;;;;;;44.90;23.48;;;;;;;-0.29;100.00;99309.66;5069995;28;20049;-60
2023/02/06 07:42:38;;;;;;;43.95;22.73;;;;;;;-0.32;100.00;99306.44;5062396;28;20037;-60
2023/02/06 07:45:17;;;;;;;45.10;21.42;;;;;;;-0.22;100.00;99309.16;5064576;28;20093;-59
2023/02/06 07:47:44;;;;;;;39.28;20.92;;;;;;;-0.22;100.00;99312.63;5065189;28;21322;-59
2023/02/06 07:50:10;;;;;;;40.85;22.27;;;;;;;-0.33;100.00;99315.41;5070712;28;20499;-59
2023/02/06 07:52:37;;;;;;;45.20;20.17;;;;;;;-0.30;100.00;99307.13;5068811;28;20072;-61
2023/02/06 07:55:04;;;;;;;40.25;22.30;;;;;;;-0.21;100.00;99310.81;5068408;28;20094;-59
2023/02/06 07:57:31;;;;;;;38.13;21.50;;;;;;;-0.19;100.00;99311.56;5056667;28;20049;-61
2023/02/06 07:59:57;;;;;;;36.28;20.48;;;;;;;-0.15;100.00;99311.13;5066575;28;20500;-60
2023/02/06 08:02:23;;;;;;;40.95;21.95;;;;;;;-0.07;100.00;99306.97;5068182;28;20055;-60
2023/02/06 08:04:50;;;;;;;39.13;20.40;;;;;;;-0.08;100.00;99297.28;5066095;28;20044;-59
2023/02/06 08:07:17;;;;;;;37.08;19.17;;;;;;;0.05;100.00;99287.22;5064926;28;20036;-60
2023/02/06 08:09:43;;;;;;;35.05;19.05;;;;;;;0.19;100.00;99293.97;5067906;28;20044;-60
2023/02/06 08:12:10;;;;;;;33.40;19.38;;;;;;;0.02;100.00;99299.97;5063659;28;20128;-61
2023/02/06 08:14:37;;;;;;;32.72;19.45;;;;;;;0.04;100.00;99303.34;5065018;28;20048;-59
2023/02/06 08:17:04;;;;;;;33.97;18.95;;;;;;;0.08;100.00;99292.25;5062893;28;20131;-59
2023/02/06 08:19:30;;;;;;;31.73;17.58;;;;;;;0.18;100.00;99294.13;5063309;28;20048;-60
2023/02/06 08:21:56;;;;;;;31.92;16.45;;;;;;;0.08;100.00;99294.94;5066141;28;20036;-59
2023/02/06 08:24:23;;;;;;;30.27;17.27;;;;;;;0.13;100.00;99302.53;5066759;28;20071;-60
2023/02/06 08:26:49;;;;;;;29.75;16.23;;;;;;;0.37;100.00;99298.66;5061949;28;20582;-60
2023/02/06 08:29:16;;;;;;;30.90;16.75;;;;;;;0.35;100.00;99290.78;5066131;28;20126;-59
2023/02/06 08:31:42;;;;;;;29.48;16.08;;;;;;;0.35;100.00;99285.47;5067202;28;20037;-59
2023/02/06 08:34:11;;;;;;;27.48;16.35;;;;;;;0.46;100.00;99281.81;5074863;28;20083;-60
2023/02/06 08:36:38;;;;;;;28.60;16.77;;;;;;;0.46;100.00;99280.97;5065319;28;20044;-60
2023/02/06 08:39:04;;;;;;;28.77;15.45;;;;;;;0.45;100.00;99281.97;5070226;28;20505;-60
2023/02/06 08:41:36;;;;;;;23.25;14.27;;;;;;;0.42;100.00;99287.56;5069381;28;20097;-58
2023/02/06 08:44:06;;;;;;;26.75;14.82;;;;;;;0.73;100.00;99298.09;5072221;28;20075;-60
2023/02/06 08:46:33;;;;;;;26.42;15.43;;;;;;;0.84;100.00;99287.28;5066547;28;20063;-60
2023/02/06 08:49:03;;;;;;;24.60;14.77;;;;;;;0.94;100.00;99292.63;5070962;28;20683;-60
2023/02/06 08:51:31;;;;;;;31.92;16.35;;;;;;;0.77;100.00;99295.00;5067089;28;20101;-60
2023/02/06 08:54:00;;;;;;;29.05;15.75;;;;;;;0.39;100.00;99296.69;5068832;28;20043;-58
2023/02/06 08:56:27;;;;;;;29.00;14.82;;;;;;;0.40;100.00;99294.88;5071635;28;20064;-60
2023/02/06 08:58:55;;;;;;;23.42;13.80;;;;;;;0.67;100.00;99298.66;5070192;28;20033;-59
2023/02/06 09:01:21;;;;;;;28.20;17.00;;;;;;;0.52;100.00;99291.09;5069370;28;20131;-60
2023/02/06 09:03:48;;;;;;;28.38;14.48;;;;;;;0.45;100.00;99292.63;5069428;28;20128;-59
2023/02/06 09:06:15;;;;;;;29.65;14.60;;;;;;;0.35;100.00;99293.47;5066539;28;20044;-59
2023/02/06 09:08:41;;;;;;;27.48;13.88;;;;;;;0.26;100.00;99296.97;5073204;28;20048;-60
2023/02/06 09:11:11;;;;;;;24.40;14.38;;;;;;;0.45;100.00;99300.63;5071613;28;20036;-59
2023/02/06 09:13:38;;;;;;;27.02;14.55;;;;;;;0.60;100.00;99301.06;5067458;28;20059;-60
2023/02/06 09:16:05;;;;;;;21.77;13.02;;;;;;;0.70;100.00;99299.22;5071264;28;20455;-60
2023/02/06 09:18:32;;;;;;;28.05;15.18;;;;;;;0.79;100.00;99300.22;5068252;28;20055;-60
2023/02/06 09:21:12;;;;;;;27.08;14.00;;;;;;;0.92;100.00;99301.75;5064203;28;20056;-59
2023/02/06 09:23:42;;;;;;;23.50;14.00;;;;;;;0.86;100.00;99296.00;5068838;28;20529;-60
2023/02/06 09:26:10;;;;;;;23.60;13.18;;;;;;;0.94;100.00;99294.44;5070316;28;20041;-59
2023/02/06 09:28:37;;;;;;;20.08;13.23;;;;;;;1.09;100.00;99282.34;5068490;28;20675;-59
2023/02/06 09:31:03;;;;;;;21.65;11.93;;;;;;;1.20;100.00;99291.16;5064511;28;20053;-59
2023/02/06 09:33:30;;;;;;;22.80;13.75;;;;;;;0.99;100.00;99279.69;5066444;28;20097;-59
2023/02/06 09:36:04;;;;;;;23.30;13.32;;;;;;;0.99;100.00;99281.53;5070734;28;20068;-60
2023/02/06 09:38:31;;;;;;;20.50;12.95;;;;;;;1.06;100.00;99287.97;5068484;28;20494;-59
2023/02/06 09:41:01;;;;;;;22.15;11.45;;;;;;;1.15;100.00;99287.09;5065206;28;20051;-60
2023/02/06 09:43:31;;;;;;;20.27;12.55;;;;;;;1.34;99.97;99280.03;5063789;28;20127;-60
2023/02/06 09:46:03;;;;;;;20.60;12.68;;;;;;;1.19;100.00;99268.13;5069038;28;20048;-60
2023/02/06 09:48:33;;;;;;;16.85;11.38;;;;;;;1.25;100.00;99256.91;5065490;28;20127;-60
2023/02/06 09:51:17;;;;;;;21.17;13.48;;;;;;;1.33;100.00;99253.50;5065599;28;20547;-60
2023/02/06 09:54:06;;;;;;;19.10;11.90;;;;;;;1.43;100.00;99248.94;5068590;28;20694;-60
2023/02/06 09:56:44;;;;;;;18.13;11.93;;;;;;;1.50;100.00;99244.72;5067304;28;20074;-59
2023/02/06 09:59:28;;;;;;;19.42;10.73;;;;;;;1.50;97.48;99242.06;5069346;28;20755;-60
2023/02/06 10:02:35;;;;;;;17.73;10.75;;;;;;;1.40;98.55;99235.91;5055751;28;20029;-60
2023/02/06 10:05:21;;;;;;;15.60;9.50;;;;;;;1.49;96.62;99243.03;5065232;28;20114;-60
2023/02/06 10:08:01;;;;;;;18.65;10.13;;;;;;;1.68;96.03;99234.09;5032855;28;20049;-60
2023/02/06 10:10:30;;;;;;;19.40;10.98;;;;;;;1.81;96.11;99228.41;5048803;28;20687;-61
2023/02/06 10:13:08;;;;;;;18.17;9.52;;;;;;;1.39;96.68;99224.38;5066246;28;20151;-60
2023/02/06 10:15:42;;;;;;;13.98;8.32;;;;;;;1.35;96.31;99220.34;5063156;28;20040;-59
2023/02/06 10:18:15;;;;;;;14.93;8.98;;;;;;;1.33;96.88;99214.31;5048596;28;20055;-60
2023/02/06 10:21:01;;;;;;;14.70;8.63;;;;;;;1.47;95.81;99215.63;5065278;28;20131;-60
2023/02/06 10:23:38;;;;;;;16.50;9.35;;;;;;;1.43;97.56;99217.78;5060825;28;20105;-60
2023/02/06 10:26:22;;;;;;;13.32;7.30;;;;;;;1.65;93.78;99213.03;5070146;28;20102;-60
2023/02/06 10:28:54;;;;;;;17.30;9.35;;;;;;;1.56;94.18;99221.94;5071439;28;20345;-60
2023/02/06 10:31:24;;;;;;;18.27;10.23;;;;;;;1.54;94.34;99215.88;5068998;28;20028;-60
2023/02/06 10:34:16;;;;;;;14.77;9.05;;;;;;;1.69;92.14;99205.56;5069846;28;21146;-58
2023/02/06 10:36:51;;;;;;;16.38;8.95;;;;;;;1.64;94.00;99203.34;5069929;28;20115;-59
2023/02/06 10:39:38;;;;;;;17.30;9.73;;;;;;;1.58;93.54;99203.09;5059340;28;20066;-58
2023/02/06 10:42:17;;;;;;;14.43;6.80;;;;;;;1.20;91.94;99206.63;5069346;28;20039;-59
2023/02/06 10:44:52;;;;;;;12.73;7.18;;;;;;;1.43;90.70;99196.41;5075578;28;20044;-59
2023/02/06 10:47:36;;;;;;;13.75;6.65;;;;;;;1.45;nan;99200.75;5065067;28;20097;-58
2023/02/06 10:50:13;;;;;;;10.88;4.60;;;;;;;1.37;88.34;99201.50;5066110;28;20041;-58
2023/02/06 10:52:40;;;;;;;8.35;5.00;;;;;;;1.33;88.23;99202.78;5063764;28;20557;-59
2023/02/06 10:55:23;;;;;;;17.67;6.10;;;;;;;1.39;87.52;99197.69;5067711;28;20118;-60
2023/02/06 10:58:01;;;;;;;9.48;5.30;;;;;;;1.62;89.83;99191.13;5068527;28;20051;-57
2023/02/06 11:00:29;;;;;;;8.88;4.75;;;;;;;1.67;88.30;99195.00;5069188;28;20123;-59
2023/02/06 11:02:59;;;;;;;9.63;4.80;;;;;;;1.93;86.97;99193.47;5065616;28;20048;-59
2023/02/06 11:05:34;;;;;;;9.45;4.90;;;;;;;1.88;83.96;99191.25;5066524;28;20558;-60
2023/02/06 11:08:23;;;;;;;10.13;5.75;;;;;;;1.73;86.19;99184.75;5062399;28;20651;-61
2023/02/06 11:10:50;;;;;;;8.60;5.25;;;;;;;1.70;86.61;99185.88;5062495;28;20040;-59
2023/02/06 11:13:32;;;;;;;8.25;4.18;;;;;;;1.99;81.12;99190.19;5071703;28;20040;-60
2023/02/06 11:16:07;;;;;;;9.00;4.93;;;;;;;1.85;83.27;99177.34;5061517;28;20152;-61
2023/02/06 11:18:37;;;;;;;9.32;5.28;;;;;;;1.84;82.37;99173.00;5067321;28;20045;-60
2023/02/06 11:21:06;;;;;;;14.02;9.52;;;;;;;1.94;83.23;99165.75;5065892;28;20169;-60
2023/02/06 11:23:33;;;;;;;11.52;8.07;;;;;;;1.74;84.50;99160.56;5065880;28;20037;-61
2023/02/06 11:26:13;;;;;;;9.80;5.88;;;;;;;1.67;85.40;99170.16;5065502;28;20631;-59
2023/02/06 11:28:54;;;;;;;9.95;6.15;;;;;;;1.89;85.00;99163.56;5066373;28;20537;-60